createdAt,value
2022-10-23T00:01:48.209Z,100.00
2022-10-23T00:04:19.617Z,100.00
2022-10-23T00:06:42.229Z,100.00
2022-10-23T00:09:06.626Z,100.00
2022-10-23T00:11:30.212Z,100.00
2022-10-23T00:13:54.303Z,100.00
2022-10-23T00:16:16.766Z,100.00
2022-10-23T00:18:39.810Z,100.00
2022-10-23T00:21:02.965Z,100.00
2022-10-23T00:23:25.401Z,100.00
2022-10-23T00:25:47.773Z,100.00
2022-10-23T00:28:10.701Z,100.00
2022-10-23T00:30:33.129Z,100.00
2022-10-23T00:32:55.550Z,100.00
2022-10-23T00:35:18.141Z,100.00
2022-10-23T00:37:40.723Z,100.00
2022-10-23T00:40:04.803Z,100.00
2022-10-23T00:42:27.248Z,100.00
2022-10-23T00:44:49.548Z,100.00
2022-10-23T00:47:12.859Z,100.00
2022-10-23T00:49:35.591Z,100.00
2022-10-23T00:52:04.564Z,100.00
2022-10-23T00:54:29.698Z,100.00
2022-10-23T00:56:53.995Z,100.00
2022-10-23T00:59:16.376Z,100.00
2022-10-23T01:01:38.902Z,100.00
2022-10-23T01:04:02.617Z,100.00
2022-10-23T01:06:38.177Z,100.00
2022-10-23T01:09:25.962Z,100.00
2022-10-23T01:12:21.253Z,100.00
2022-10-23T01:15:10.973Z,100.00
2022-10-23T01:18:03.869Z,100.00
2022-10-23T01:20:45.869Z,100.00
2022-10-23T01:23:13.941Z,100.00
2022-10-23T01:26:16.905Z,100.00
2022-10-23T01:28:49.306Z,100.00
2022-10-23T01:31:24.874Z,100.00
2022-10-23T01:33:56.327Z,100.00
2022-10-23T01:36:20.554Z,100.00
2022-10-23T01:38:56.867Z,100.00
2022-10-23T01:41:43.514Z,100.00
2022-10-23T01:44:36.643Z,100.00
2022-10-23T01:46:59.060Z,100.00
2022-10-23T01:49:21.842Z,100.00
2022-10-23T01:51:50.754Z,100.00
2022-10-23T01:54:14.397Z,100.00
2022-10-23T01:56:38.381Z,100.00
2022-10-23T01:59:04.023Z,100.00
2022-10-23T02:01:28.024Z,100.00
2022-10-23T02:03:50.917Z,100.00
2022-10-23T02:06:13.313Z,100.00
2022-10-23T02:08:35.656Z,100.00
2022-10-23T02:11:10.171Z,100.00
2022-10-23T02:14:07.761Z,100.00
2022-10-23T02:16:52.345Z,100.00
2022-10-23T02:19:30.796Z,100.00
2022-10-23T02:22:09.335Z,100.00
2022-10-23T02:24:55.868Z,100.00
2022-10-23T02:27:35.988Z,100.00
2022-10-23T02:30:08.825Z,100.00
2022-10-23T02:32:31.362Z,100.00
2022-10-23T02:34:53.846Z,100.00
2022-10-23T02:37:16.595Z,100.00
2022-10-23T02:39:39.478Z,100.00
2022-10-23T02:42:39.481Z,100.00
2022-10-23T02:45:32.182Z,100.00
2022-10-23T02:48:12.944Z,100.00
2022-10-23T02:51:04.457Z,100.00
2022-10-23T02:56:45.815Z,100.00
2022-10-23T02:59:37.330Z,100.00
2022-10-23T03:02:23.817Z,100.00
2022-10-23T03:04:46.380Z,100.00
2022-10-23T03:07:12.605Z,100.00
2022-10-23T03:09:34.931Z,100.00
2022-10-23T03:11:57.413Z,100.00
2022-10-23T03:14:19.897Z,100.00
2022-10-23T03:16:42.526Z,100.00
2022-10-23T03:19:04.941Z,100.00
2022-10-23T03:21:27.333Z,100.00
2022-10-23T03:23:49.665Z,100.00
2022-10-23T03:26:12.116Z,100.00
2022-10-23T03:28:35.690Z,100.00
2022-10-23T03:30:58.181Z,100.00
2022-10-23T03:33:20.682Z,100.00
2022-10-23T03:35:43.140Z,100.00
2022-10-23T03:38:05.493Z,100.00
2022-10-23T03:40:28.209Z,100.00
2022-10-23T03:42:50.682Z,100.00
2022-10-23T03:45:13.253Z,100.00
2022-10-23T03:47:41.032Z,100.00
2022-10-23T03:50:04.611Z,100.00
2022-10-23T03:52:26.990Z,100.00
2022-10-23T03:54:49.427Z,100.00
2022-10-23T03:57:12.228Z,100.00
2022-10-23T03:59:34.914Z,100.00
2022-10-23T04:01:57.312Z,100.00
2022-10-23T04:04:19.773Z,100.00
2022-10-23T04:06:42.335Z,100.00
2022-10-23T04:09:05.344Z,100.00
2022-10-23T04:11:28.035Z,100.00
2022-10-23T04:13:50.405Z,100.00
2022-10-23T04:16:12.984Z,100.00
2022-10-23T04:18:35.570Z,100.00
2022-10-23T04:20:57.962Z,100.00
2022-10-23T04:23:20.511Z,100.00
2022-10-23T04:25:42.918Z,100.00
2022-10-23T04:28:05.561Z,100.00
2022-10-23T04:30:28.068Z,100.00
2022-10-23T04:32:53.512Z,100.00
2022-10-23T04:35:16.179Z,100.00
2022-10-23T04:37:38.607Z,100.00
2022-10-23T04:40:01.189Z,100.00
2022-10-23T04:42:23.756Z,100.00
2022-10-23T04:44:46.278Z,100.00
2022-10-23T04:47:08.651Z,100.00
2022-10-23T04:49:30.962Z,100.00
2022-10-23T04:51:53.375Z,100.00
2022-10-23T04:54:15.865Z,100.00
2022-10-23T04:56:38.371Z,100.00
2022-10-23T04:59:01.365Z,100.00
2022-10-23T05:01:23.978Z,100.00
2022-10-23T05:03:46.528Z,100.00
2022-10-23T05:06:09.035Z,100.00
2022-10-23T05:08:31.684Z,100.00
2022-10-23T05:10:54.122Z,100.00
2022-10-23T05:13:19.753Z,100.00
2022-10-23T05:18:29.359Z,100.00
2022-10-23T05:21:01.308Z,100.00
2022-10-23T05:23:24.207Z,100.00
2022-10-23T05:25:46.761Z,100.00
2022-10-23T05:28:09.265Z,100.00
2022-10-23T05:30:33.248Z,100.00
2022-10-23T05:32:55.695Z,100.00
2022-10-23T05:35:22.250Z,100.00
2022-10-23T05:37:45.486Z,100.00
2022-10-23T05:40:08.854Z,100.00
2022-10-23T05:42:31.337Z,100.00
2022-10-23T05:44:53.914Z,100.00
2022-10-23T05:47:16.539Z,100.00
2022-10-23T05:49:38.944Z,100.00
2022-10-23T05:52:01.370Z,100.00
2022-10-23T05:54:23.981Z,100.00
2022-10-23T05:56:46.377Z,100.00
2022-10-23T05:59:09.069Z,100.00
2022-10-23T06:01:31.747Z,100.00
2022-10-23T06:03:54.258Z,100.00
2022-10-23T06:06:16.582Z,100.00
2022-10-23T06:08:38.940Z,100.00
2022-10-23T06:11:09.667Z,100.00
2022-10-23T06:13:32.406Z,100.00
2022-10-23T06:15:54.806Z,100.00
2022-10-23T06:18:17.209Z,100.00
2022-10-23T06:20:39.742Z,100.00
2022-10-23T06:23:02.222Z,100.00
2022-10-23T06:25:24.788Z,100.00
2022-10-23T06:27:47.142Z,100.00
2022-10-23T06:30:10.132Z,100.00
2022-10-23T06:32:32.859Z,100.00
2022-10-23T06:34:55.353Z,100.00
2022-10-23T06:37:17.801Z,100.00
2022-10-23T06:39:40.613Z,100.00
2022-10-23T06:42:03.708Z,100.00
2022-10-23T06:44:26.274Z,100.00
2022-10-23T06:46:49.185Z,100.00
2022-10-23T06:49:11.493Z,100.00
2022-10-23T06:51:33.931Z,100.00
2022-10-23T06:53:56.837Z,100.00
2022-10-23T06:56:19.253Z,100.00
2022-10-23T06:58:41.862Z,100.00
2022-10-23T07:01:07.021Z,100.00
2022-10-23T07:03:29.689Z,100.00
2022-10-23T07:05:52.175Z,100.00
2022-10-23T07:08:14.925Z,100.00
2022-10-23T07:10:37.370Z,100.00
2022-10-23T07:13:01.243Z,100.00
2022-10-23T07:15:23.810Z,100.00
2022-10-23T07:17:46.230Z,100.00
2022-10-23T07:20:08.932Z,100.00
2022-10-23T07:22:31.390Z,100.00
2022-10-23T07:24:53.832Z,100.00
2022-10-23T07:27:16.337Z,100.00
2022-10-23T07:29:38.794Z,100.00
2022-10-23T07:32:01.902Z,100.00
2022-10-23T07:34:24.936Z,100.00
2022-10-23T07:36:47.517Z,100.00
2022-10-23T07:39:09.942Z,100.00
2022-10-23T07:41:32.341Z,100.00
2022-10-23T07:43:54.809Z,100.00
2022-10-23T07:46:17.306Z,100.00
2022-10-23T07:48:40.044Z,100.00
2022-10-23T07:51:08.325Z,100.00
2022-10-23T07:53:30.839Z,100.00
2022-10-23T07:55:58.380Z,100.00
2022-10-23T07:58:20.948Z,100.00
2022-10-23T08:00:43.528Z,100.00
2022-10-23T08:03:05.916Z,100.00
2022-10-23T08:05:28.468Z,100.00
2022-10-23T08:07:50.873Z,100.00
2022-10-23T08:10:13.352Z,100.00
2022-10-23T08:12:37.163Z,100.00
2022-10-23T08:14:59.695Z,100.00
2022-10-23T08:17:24.026Z,100.00
2022-10-23T08:19:48.932Z,100.00
2022-10-23T08:22:11.280Z,100.00
2022-10-23T08:24:33.706Z,100.00
2022-10-23T08:26:56.135Z,100.00
2022-10-23T08:29:18.529Z,100.00
2022-10-23T08:31:40.879Z,100.00
2022-10-23T08:34:03.267Z,100.00
2022-10-23T08:36:27.631Z,100.00
2022-10-23T08:38:50.287Z,100.00
2022-10-23T08:41:37.812Z,100.00
2022-10-23T08:44:19.410Z,100.00
2022-10-23T08:46:45.885Z,100.00
2022-10-23T08:49:53.837Z,100.00
2022-10-23T08:52:22.441Z,100.00
2022-10-23T08:55:15.218Z,100.00
2022-10-23T08:57:43.716Z,100.00
2022-10-23T09:00:20.223Z,100.00
2022-10-23T09:02:50.800Z,100.00
2022-10-23T09:05:59.124Z,100.00
2022-10-23T09:08:42.731Z,100.00
2022-10-23T09:11:12.475Z,100.00
2022-10-23T09:14:01.044Z,100.00
2022-10-23T09:16:56.030Z,100.00
2022-10-23T09:19:20.719Z,100.00
2022-10-23T09:21:45.656Z,100.00
2022-10-23T09:24:14.727Z,100.00
2022-10-23T09:26:40.115Z,100.00
2022-10-23T09:29:29.875Z,100.00
2022-10-23T09:31:54.534Z,100.00
2022-10-23T09:34:26.388Z,100.00
2022-10-23T09:37:04.148Z,100.00
2022-10-23T09:39:32.517Z,100.00
2022-10-23T09:41:57.017Z,100.00
2022-10-23T09:44:27.186Z,100.00
2022-10-23T09:47:00.973Z,100.00
2022-10-23T09:49:32.115Z,100.00
2022-10-23T09:52:12.519Z,100.00
2022-10-23T09:54:38.885Z,100.00
2022-10-23T09:57:37.195Z,100.00
2022-10-23T10:00:14.477Z,100.00
2022-10-23T10:02:37.035Z,100.00
2022-10-23T10:04:59.765Z,100.00
2022-10-23T10:07:25.533Z,100.00
2022-10-23T10:09:48.139Z,100.00
2022-10-23T10:12:50.194Z,100.00
2022-10-23T10:15:52.080Z,100.00
2022-10-23T10:18:40.368Z,100.00
2022-10-23T10:21:14.520Z,100.00
2022-10-23T10:24:20.167Z,100.00
2022-10-23T10:27:14.639Z,100.00
2022-10-23T10:30:25.514Z,100.00
2022-10-23T10:33:04.042Z,100.00
2022-10-23T10:35:52.849Z,100.00
2022-10-23T10:38:44.327Z,100.00
2022-10-23T10:41:21.862Z,100.00
2022-10-23T10:44:18.223Z,100.00
2022-10-23T10:46:58.578Z,100.00
2022-10-23T10:49:53.000Z,100.00
2022-10-23T10:52:38.991Z,100.00
2022-10-23T10:55:14.765Z,100.00
2022-10-23T10:58:00.120Z,100.00
2022-10-23T11:00:23.368Z,100.00
2022-10-23T11:02:49.397Z,100.00
2022-10-23T11:05:38.534Z,100.00
2022-10-23T11:08:28.560Z,100.00
2022-10-23T11:10:59.018Z,100.00
2022-10-23T11:13:33.730Z,100.00
2022-10-23T11:15:59.476Z,99.94
2022-10-23T11:18:28.571Z,100.00
2022-10-23T11:20:56.108Z,99.14
2022-10-23T11:23:46.096Z,99.79
2022-10-23T11:26:26.723Z,99.36
2022-10-23T11:29:26.732Z,98.28
2022-10-23T11:32:21.732Z,98.89
2022-10-23T11:35:08.570Z,97.95
2022-10-23T11:37:30.982Z,99.31
2022-10-23T11:40:23.074Z,97.06
2022-10-23T11:42:47.562Z,98.40
2022-10-23T11:45:48.423Z,96.18
2022-10-23T11:48:26.084Z,97.02
2022-10-23T11:50:48.738Z,96.86
2022-10-23T11:53:32.491Z,96.01
2022-10-23T11:56:00.885Z,96.11
2022-10-23T11:58:31.863Z,97.54
2022-10-23T12:01:06.232Z,96.74
2022-10-23T12:03:36.859Z,95.43
2022-10-23T12:06:04.982Z,93.98
2022-10-23T12:08:29.887Z,94.96
2022-10-23T12:10:53.204Z,94.90
2022-10-23T12:13:37.454Z,93.65
2022-10-23T12:16:00.977Z,93.65
2022-10-23T12:18:23.681Z,94.17
2022-10-23T12:20:56.655Z,93.52
2022-10-23T12:23:50.067Z,93.09
2022-10-23T12:26:28.409Z,92.82
2022-10-23T12:29:26.073Z,92.12
2022-10-23T12:32:22.403Z,89.32
2022-10-23T12:35:12.507Z,88.41
2022-10-23T12:37:55.237Z,87.72
2022-10-23T12:40:17.660Z,87.00
2022-10-23T12:42:40.071Z,86.99
2022-10-23T12:45:19.746Z,86.92
2022-10-23T12:47:44.221Z,87.53
2022-10-23T12:50:25.180Z,84.69
2022-10-23T12:53:05.042Z,84.81
2022-10-23T12:55:47.535Z,85.83
2022-10-23T12:58:30.773Z,85.46
2022-10-23T13:00:56.677Z,86.52
2022-10-23T13:03:22.043Z,86.70
2022-10-23T13:05:44.422Z,83.87
2022-10-23T13:08:06.750Z,85.09
2022-10-23T13:10:29.221Z,86.62
2022-10-23T13:13:00.010Z,84.50
2022-10-23T13:15:23.297Z,83.66
2022-10-23T13:17:57.609Z,82.26
2022-10-23T13:20:26.545Z,82.13
2022-10-23T13:22:55.254Z,80.55
2022-10-23T13:25:33.622Z,78.99
2022-10-23T13:28:08.017Z,78.80
2022-10-23T13:30:33.692Z,80.16
2022-10-23T13:32:56.158Z,81.66
2022-10-23T13:35:22.329Z,79.48
2022-10-23T13:40:38.330Z,79.58
2022-10-23T13:43:00.658Z,81.66
2022-10-23T13:45:25.179Z,81.42
2022-10-23T13:47:47.486Z,81.32
2022-10-23T13:50:11.331Z,78.33
2022-10-23T13:52:33.646Z,77.14
2022-10-23T13:54:56.083Z,75.20
2022-10-23T13:57:18.549Z,73.97
2022-10-23T13:59:41.027Z,73.33
2022-10-23T14:02:05.699Z,76.32
2022-10-23T14:04:28.199Z,72.55
2022-10-23T14:06:50.587Z,73.88
2022-10-23T14:09:17.836Z,74.69
2022-10-23T14:11:40.243Z,74.50
2022-10-23T14:14:02.627Z,77.16
2022-10-23T14:16:24.976Z,73.90
2022-10-23T14:18:47.666Z,77.29
2022-10-23T14:21:12.724Z,78.16
2022-10-23T14:23:35.123Z,80.22
2022-10-23T14:26:11.601Z,80.13
2022-10-23T14:28:34.240Z,81.96
2022-10-23T14:30:56.606Z,83.75
2022-10-23T14:33:18.918Z,83.02
2022-10-23T14:35:43.359Z,85.04
2022-10-23T14:38:05.677Z,86.18
2022-10-23T14:40:28.036Z,85.66
2022-10-23T14:42:50.393Z,86.35
2022-10-23T14:45:12.805Z,87.41
2022-10-23T14:47:35.177Z,88.24
2022-10-23T14:49:57.544Z,88.79
2022-10-23T14:52:19.981Z,88.73
2022-10-23T14:54:42.355Z,90.08
2022-10-23T14:57:04.918Z,90.34
2022-10-23T14:59:27.335Z,90.73
2022-10-23T15:01:49.809Z,91.13
2022-10-23T15:04:14.602Z,91.19
2022-10-23T15:06:37.392Z,91.23
2022-10-23T15:08:59.803Z,91.55
2022-10-23T15:11:23.107Z,91.62
2022-10-23T15:13:45.382Z,92.23
2022-10-23T15:16:09.919Z,92.31
2022-10-23T15:18:32.476Z,93.42
2022-10-23T15:20:54.826Z,93.26
2022-10-23T15:23:17.198Z,93.94
2022-10-23T15:25:40.663Z,93.72
2022-10-23T15:28:03.034Z,93.91
2022-10-23T15:30:25.445Z,94.70
2022-10-23T15:32:47.762Z,94.92
2022-10-23T15:35:10.127Z,95.48
2022-10-23T15:37:32.481Z,96.17
2022-10-23T15:39:59.650Z,96.34
2022-10-23T15:42:24.556Z,96.73
2022-10-23T15:44:46.988Z,96.71
2022-10-23T15:47:09.328Z,96.91
2022-10-23T15:49:31.909Z,98.30
2022-10-23T15:51:54.370Z,98.20
2022-10-23T15:54:19.061Z,98.44
2022-10-23T15:56:41.451Z,99.08
2022-10-23T15:59:03.946Z,97.93
2022-10-23T16:01:26.719Z,98.91
2022-10-23T16:03:50.301Z,99.59
2022-10-23T16:06:15.336Z,100.00
2022-10-23T16:08:37.851Z,100.00
2022-10-23T16:11:00.245Z,100.00
2022-10-23T16:13:22.590Z,100.00
2022-10-23T16:15:45.061Z,100.00
2022-10-23T16:18:08.915Z,99.38
2022-10-23T16:20:31.408Z,100.00
2022-10-23T16:22:53.887Z,100.00
2022-10-23T16:25:16.362Z,100.00
2022-10-23T16:27:39.026Z,100.00
2022-10-23T16:30:01.375Z,100.00
2022-10-23T16:32:23.781Z,100.00
2022-10-23T16:34:46.400Z,100.00
2022-10-23T16:37:08.766Z,100.00
2022-10-23T16:39:31.634Z,100.00
2022-10-23T16:41:54.233Z,100.00
2022-10-23T16:44:16.633Z,100.00
2022-10-23T16:46:39.854Z,100.00
2022-10-23T16:49:05.030Z,100.00
2022-10-23T16:51:27.627Z,100.00
2022-10-23T16:53:50.108Z,100.00
2022-10-23T16:56:15.586Z,100.00
2022-10-23T16:58:40.942Z,100.00
2022-10-23T17:01:27.292Z,100.00
2022-10-23T17:03:50.745Z,100.00
2022-10-23T17:06:13.741Z,100.00
2022-10-23T17:08:36.216Z,100.00
2022-10-23T17:11:13.408Z,100.00
2022-10-23T17:13:36.914Z,100.00
2022-10-23T17:16:11.092Z,100.00
2022-10-23T17:18:35.597Z,100.00
2022-10-23T17:21:00.107Z,100.00
2022-10-23T17:23:22.797Z,100.00
2022-10-23T17:25:45.141Z,100.00
2022-10-23T17:28:07.549Z,100.00
2022-10-23T17:30:30.157Z,100.00
2022-10-23T17:32:52.516Z,100.00
2022-10-23T17:35:15.023Z,100.00
2022-10-23T17:37:37.413Z,100.00
2022-10-23T17:40:02.682Z,100.00
2022-10-23T17:42:25.245Z,100.00
2022-10-23T17:44:47.707Z,100.00
2022-10-23T17:47:10.540Z,100.00
2022-10-23T17:49:32.893Z,100.00
2022-10-23T17:51:57.060Z,100.00
2022-10-23T17:54:19.422Z,100.00
2022-10-23T17:56:41.855Z,100.00
2022-10-23T17:59:13.588Z,100.00
2022-10-23T18:01:36.312Z,100.00
2022-10-23T18:04:02.654Z,100.00
2022-10-23T18:06:32.267Z,100.00
2022-10-23T18:08:55.036Z,100.00
2022-10-23T18:11:25.283Z,100.00
2022-10-23T18:13:47.947Z,100.00
2022-10-23T18:16:11.746Z,100.00
2022-10-23T18:18:34.550Z,100.00
2022-10-23T18:21:01.236Z,100.00
2022-10-23T18:23:23.695Z,100.00
2022-10-23T18:25:46.274Z,100.00
2022-10-23T18:28:08.716Z,100.00
2022-10-23T18:30:31.139Z,100.00
2022-10-23T18:32:53.574Z,100.00
2022-10-23T18:35:16.006Z,100.00
2022-10-23T18:37:41.626Z,100.00
2022-10-23T18:40:04.872Z,100.00
2022-10-23T18:42:27.259Z,100.00
2022-10-23T18:44:50.112Z,100.00
2022-10-23T18:47:12.663Z,100.00
2022-10-23T18:49:35.121Z,100.00
2022-10-23T18:51:58.616Z,100.00
2022-10-23T18:54:21.497Z,100.00
2022-10-23T18:56:44.273Z,100.00
2022-10-23T18:59:10.083Z,100.00
2022-10-23T19:01:32.558Z,100.00
2022-10-23T19:06:23.938Z,100.00
2022-10-23T19:08:46.381Z,100.00
2022-10-23T19:11:09.228Z,100.00
2022-10-23T19:13:36.489Z,100.00
2022-10-23T19:16:01.497Z,100.00
2022-10-23T19:18:23.849Z,100.00
2022-10-23T19:20:46.165Z,100.00
2022-10-23T19:23:11.699Z,100.00
2022-10-23T19:25:36.369Z,100.00
2022-10-23T19:27:58.873Z,100.00
2022-10-23T19:30:22.796Z,100.00
2022-10-23T19:32:46.050Z,100.00
2022-10-23T19:35:09.578Z,100.00
2022-10-23T19:37:31.855Z,100.00
2022-10-23T19:39:54.251Z,100.00
2022-10-23T19:42:16.677Z,100.00
2022-10-23T19:44:39.055Z,100.00
2022-10-23T19:47:02.521Z,100.00
2022-10-23T19:49:24.899Z,100.00
2022-10-23T19:51:50.925Z,100.00
2022-10-23T19:54:14.486Z,100.00
2022-10-23T19:56:37.463Z,100.00
2022-10-23T19:58:59.854Z,100.00
2022-10-23T20:01:24.731Z,100.00
2022-10-23T20:03:50.064Z,100.00
2022-10-23T20:06:13.993Z,100.00
2022-10-23T20:08:36.398Z,100.00
2022-10-23T20:10:58.730Z,100.00
2022-10-23T20:13:21.589Z,100.00
2022-10-23T20:15:44.270Z,100.00
2022-10-23T20:18:06.714Z,100.00
2022-10-23T20:20:29.124Z,100.00
2022-10-23T20:22:54.714Z,100.00
2022-10-23T20:25:18.072Z,100.00
2022-10-23T20:27:40.458Z,100.00
2022-10-23T20:30:02.957Z,100.00
2022-10-23T20:32:28.166Z,100.00
2022-10-23T20:34:50.626Z,100.00
2022-10-23T20:37:13.191Z,100.00
2022-10-23T20:39:36.709Z,100.00
2022-10-23T20:42:00.349Z,100.00
2022-10-23T20:44:22.935Z,100.00
2022-10-23T20:46:45.467Z,100.00
2022-10-23T20:49:07.925Z,100.00
2022-10-23T20:51:30.310Z,100.00
2022-10-23T20:53:54.556Z,100.00
2022-10-23T20:56:23.703Z,100.00
2022-10-23T20:58:46.413Z,100.00
2022-10-23T21:01:11.971Z,100.00
2022-10-23T21:03:34.724Z,100.00
2022-10-23T21:06:01.076Z,100.00
2022-10-23T21:08:23.497Z,100.00
2022-10-23T21:10:47.071Z,100.00
2022-10-23T21:13:09.609Z,100.00
2022-10-23T21:15:31.959Z,100.00
2022-10-23T21:17:54.667Z,100.00
2022-10-23T21:20:17.373Z,100.00
2022-10-23T21:22:39.752Z,100.00
2022-10-23T21:25:02.567Z,100.00
2022-10-23T21:27:25.176Z,100.00
2022-10-23T21:29:47.571Z,100.00
2022-10-23T21:32:09.957Z,100.00
2022-10-23T21:34:32.464Z,100.00
2022-10-23T21:39:37.289Z,100.00
2022-10-23T21:41:59.718Z,100.00
2022-10-23T21:44:22.244Z,100.00
2022-10-23T21:46:44.701Z,100.00
2022-10-23T21:49:07.168Z,100.00
2022-10-23T21:51:37.306Z,100.00
2022-10-23T21:53:59.850Z,100.00
2022-10-23T21:56:38.068Z,100.00
2022-10-23T21:59:01.325Z,100.00
2022-10-23T22:01:23.837Z,100.00
2022-10-23T22:03:46.364Z,100.00
2022-10-23T22:06:16.273Z,100.00
2022-10-23T22:08:38.675Z,100.00
2022-10-23T22:11:04.574Z,100.00
2022-10-23T22:13:27.112Z,100.00
2022-10-23T22:15:49.570Z,100.00
2022-10-23T22:18:11.985Z,100.00
2022-10-23T22:20:34.344Z,100.00
2022-10-23T22:22:56.791Z,100.00
2022-10-23T22:25:19.188Z,100.00
2022-10-23T22:27:41.841Z,100.00
2022-10-23T22:30:05.957Z,100.00
2022-10-23T22:32:28.321Z,100.00
2022-10-23T22:34:53.098Z,100.00
2022-10-23T22:37:16.133Z,100.00
2022-10-23T22:39:38.815Z,100.00
2022-10-23T22:42:01.264Z,100.00
2022-10-23T22:44:23.698Z,100.00
2022-10-23T22:46:46.656Z,100.00
2022-10-23T22:49:09.121Z,100.00
2022-10-23T22:51:31.634Z,100.00
2022-10-23T22:53:53.974Z,100.00
2022-10-23T22:56:25.133Z,100.00
2022-10-23T22:58:47.714Z,100.00
2022-10-23T23:01:33.669Z,100.00
2022-10-23T23:03:58.218Z,100.00
2022-10-23T23:06:23.584Z,100.00
2022-10-23T23:08:46.246Z,100.00
2022-10-23T23:11:11.202Z,100.00
2022-10-23T23:13:33.769Z,100.00
2022-10-23T23:15:56.337Z,100.00
2022-10-23T23:18:18.814Z,100.00
2022-10-23T23:20:41.205Z,100.00
2022-10-23T23:23:03.720Z,100.00
2022-10-23T23:25:26.033Z,100.00
2022-10-23T23:27:48.533Z,100.00
2022-10-23T23:30:11.224Z,100.00
2022-10-23T23:32:34.982Z,100.00
2022-10-23T23:35:00.107Z,100.00
2022-10-23T23:37:22.473Z,100.00
2022-10-23T23:39:44.831Z,100.00
2022-10-23T23:42:07.243Z,100.00
2022-10-23T23:44:29.675Z,100.00
2022-10-23T23:46:52.076Z,100.00
2022-10-23T23:49:14.523Z,100.00
2022-10-23T23:51:37.342Z,100.00
2022-10-23T23:53:59.833Z,100.00
2022-10-23T23:56:22.349Z,100.00
2022-10-23T23:58:44.905Z,100.00
